sensor_id;sensor_type;location;lat;lon;timestamp;P1;durP1;ratioP1;P2;durP2;ratioP2
12846;SDS011;6492;48.128;8.320;2024-01-07T00:01:59;1.30;;;1.13;;
12846;SDS011;6492;48.128;8.320;2024-01-07T00:06:01;1.43;;;1.17;;
12846;SDS011;6492;48.128;8.320;2024-01-07T00:10:02;1.83;;;1.30;;
12846;SDS011;6492;48.128;8.320;2024-01-07T00:14:05;1.40;;;1.30;;
12846;SDS011;6492;48.128;8.320;2024-01-07T00:18:08;1.33;;;1.10;;
12846;SDS011;6492;48.128;8.320;2024-01-07T00:22:10;1.07;;;0.97;;
12846;SDS011;6492;48.128;8.320;2024-01-07T00:26:11;1.10;;;1.00;;
12846;SDS011;6492;48.128;8.320;2024-01-07T00:30:13;1.13;;;1.03;;
12846;SDS011;6492;48.128;8.320;2024-01-07T00:34:16;1.30;;;1.20;;
12846;SDS011;6492;48.128;8.320;2024-01-07T00:38:18;1.20;;;1.10;;
12846;SDS011;6492;48.128;8.320;2024-01-07T00:42:20;1.60;;;1.47;;
12846;SDS011;6492;48.128;8.320;2024-01-07T00:46:22;1.40;;;1.23;;
12846;SDS011;6492;48.128;8.320;2024-01-07T00:50:25;2.10;;;1.90;;
12846;SDS011;6492;48.128;8.320;2024-01-07T00:54:27;2.33;;;2.10;;
12846;SDS011;6492;48.128;8.320;2024-01-07T00:58:28;3.33;;;2.50;;
12846;SDS011;6492;48.128;8.320;2024-01-07T01:02:30;2.57;;;2.23;;
12846;SDS011;6492;48.128;8.320;2024-01-07T01:06:33;2.93;;;2.40;;
12846;SDS011;6492;48.128;8.320;2024-01-07T01:10:35;15.70;;;3.83;;
12846;SDS011;6492;48.128;8.320;2024-01-07T01:14:37;4.20;;;3.03;;
12846;SDS011;6492;48.128;8.320;2024-01-07T01:18:38;4.47;;;3.60;;
12846;SDS011;6492;48.128;8.320;2024-01-07T01:22:41;4.60;;;3.00;;
12846;SDS011;6492;48.128;8.320;2024-01-07T01:26:43;3.63;;;2.70;;
12846;SDS011;6492;48.128;8.320;2024-01-07T01:30:45;3.40;;;2.77;;
12846;SDS011;6492;48.128;8.320;2024-01-07T01:34:47;4.40;;;3.30;;
12846;SDS011;6492;48.128;8.320;2024-01-07T01:38:50;5.03;;;3.70;;
12846;SDS011;6492;48.128;8.320;2024-01-07T01:42:51;4.73;;;3.50;;
12846;SDS011;6492;48.128;8.320;2024-01-07T01:46:53;4.93;;;4.00;;
12846;SDS011;6492;48.128;8.320;2024-01-07T01:50:56;4.13;;;3.00;;
12846;SDS011;6492;48.128;8.320;2024-01-07T01:54:59;4.83;;;3.93;;
12846;SDS011;6492;48.128;8.320;2024-01-07T01:59:01;7.03;;;4.27;;
12846;SDS011;6492;48.128;8.320;2024-01-07T02:03:03;5.40;;;3.90;;
12846;SDS011;6492;48.128;8.320;2024-01-07T02:07:05;4.87;;;4.03;;
12846;SDS011;6492;48.128;8.320;2024-01-07T02:11:15;5.60;;;4.00;;
12846;SDS011;6492;48.128;8.320;2024-01-07T02:15:18;6.70;;;4.67;;
12846;SDS011;6492;48.128;8.320;2024-01-07T02:19:20;5.10;;;4.20;;
12846;SDS011;6492;48.128;8.320;2024-01-07T02:23:22;5.10;;;4.00;;
12846;SDS011;6492;48.128;8.320;2024-01-07T02:27:25;5.90;;;4.17;;
12846;SDS011;6492;48.128;8.320;2024-01-07T02:31:27;5.30;;;4.03;;
12846;SDS011;6492;48.128;8.320;2024-01-07T02:35:29;6.40;;;4.10;;
12846;SDS011;6492;48.128;8.320;2024-01-07T02:39:30;6.07;;;4.00;;
12846;SDS011;6492;48.128;8.320;2024-01-07T02:43:34;5.87;;;4.23;;
12846;SDS011;6492;48.128;8.320;2024-01-07T02:47:36;5.63;;;4.37;;
12846;SDS011;6492;48.128;8.320;2024-01-07T02:51:38;5.37;;;3.90;;
12846;SDS011;6492;48.128;8.320;2024-01-07T02:55:40;5.70;;;4.23;;
12846;SDS011;6492;48.128;8.320;2024-01-07T02:59:43;5.33;;;4.70;;
12846;SDS011;6492;48.128;8.320;2024-01-07T03:03:45;6.03;;;4.63;;
12846;SDS011;6492;48.128;8.320;2024-01-07T03:07:46;5.63;;;4.27;;
12846;SDS011;6492;48.128;8.320;2024-01-07T03:11:48;4.37;;;3.80;;
12846;SDS011;6492;48.128;8.320;2024-01-07T03:15:51;5.30;;;3.87;;
12846;SDS011;6492;48.128;8.320;2024-01-07T03:19:53;3.87;;;3.20;;
12846;SDS011;6492;48.128;8.320;2024-01-07T03:23:55;4.93;;;3.80;;
12846;SDS011;6492;48.128;8.320;2024-01-07T03:27:56;5.43;;;4.30;;
12846;SDS011;6492;48.128;8.320;2024-01-07T03:31:59;5.87;;;4.30;;
12846;SDS011;6492;48.128;8.320;2024-01-07T03:36:01;5.50;;;4.20;;
12846;SDS011;6492;48.128;8.320;2024-01-07T03:40:09;4.07;;;3.33;;
12846;SDS011;6492;48.128;8.320;2024-01-07T03:44:12;4.23;;;3.70;;
12846;SDS011;6492;48.128;8.320;2024-01-07T03:48:15;4.87;;;3.77;;
12846;SDS011;6492;48.128;8.320;2024-01-07T03:52:17;5.63;;;3.50;;
12846;SDS011;6492;48.128;8.320;2024-01-07T03:56:19;4.00;;;3.17;;
12846;SDS011;6492;48.128;8.320;2024-01-07T04:00:21;4.57;;;3.70;;
12846;SDS011;6492;48.128;8.320;2024-01-07T04:04:24;5.43;;;3.50;;
12846;SDS011;6492;48.128;8.320;2024-01-07T04:08:25;3.73;;;3.33;;
12846;SDS011;6492;48.128;8.320;2024-01-07T04:12:28;4.63;;;3.53;;
12846;SDS011;6492;48.128;8.320;2024-01-07T04:16:30;4.03;;;3.53;;
12846;SDS011;6492;48.128;8.320;2024-01-07T04:20:33;4.00;;;3.13;;
12846;SDS011;6492;48.128;8.320;2024-01-07T04:24:35;3.83;;;3.00;;
12846;SDS011;6492;48.128;8.320;2024-01-07T04:28:39;4.77;;;3.23;;
12846;SDS011;6492;48.128;8.320;2024-01-07T04:32:42;4.27;;;3.43;;
12846;SDS011;6492;48.128;8.320;2024-01-07T04:36:45;3.60;;;3.13;;
12846;SDS011;6492;48.128;8.320;2024-01-07T04:40:47;4.13;;;2.50;;
12846;SDS011;6492;48.128;8.320;2024-01-07T04:44:49;4.03;;;3.20;;
12846;SDS011;6492;48.128;8.320;2024-01-07T04:48:51;3.37;;;3.07;;
12846;SDS011;6492;48.128;8.320;2024-01-07T04:52:54;3.57;;;2.60;;
12846;SDS011;6492;48.128;8.320;2024-01-07T04:56:56;3.40;;;2.97;;
12846;SDS011;6492;48.128;8.320;2024-01-07T05:00:57;3.27;;;2.70;;
12846;SDS011;6492;48.128;8.320;2024-01-07T05:04:59;3.43;;;2.93;;
12846;SDS011;6492;48.128;8.320;2024-01-07T05:09:02;2.83;;;2.50;;
12846;SDS011;6492;48.128;8.320;2024-01-07T05:13:04;3.27;;;2.53;;
12846;SDS011;6492;48.128;8.320;2024-01-07T05:17:06;2.93;;;2.43;;
12846;SDS011;6492;48.128;8.320;2024-01-07T05:21:08;3.00;;;2.70;;
12846;SDS011;6492;48.128;8.320;2024-01-07T05:25:11;4.87;;;2.73;;
12846;SDS011;6492;48.128;8.320;2024-01-07T05:29:13;3.60;;;2.70;;
12846;SDS011;6492;48.128;8.320;2024-01-07T05:33:15;4.40;;;3.53;;
12846;SDS011;6492;48.128;8.320;2024-01-07T05:37:16;4.63;;;3.63;;
12846;SDS011;6492;48.128;8.320;2024-01-07T05:41:20;9.30;;;4.00;;
12846;SDS011;6492;48.128;8.320;2024-01-07T05:45:21;13.20;;;4.60;;
12846;SDS011;6492;48.128;8.320;2024-01-07T05:49:23;5.97;;;3.60;;
12846;SDS011;6492;48.128;8.320;2024-01-07T05:53:25;8.63;;;4.10;;
12846;SDS011;6492;48.128;8.320;2024-01-07T05:57:28;5.83;;;3.93;;
12846;SDS011;6492;48.128;8.320;2024-01-07T06:01:30;5.63;;;3.90;;
12846;SDS011;6492;48.128;8.320;2024-01-07T06:05:32;4.63;;;3.60;;
12846;SDS011;6492;48.128;8.320;2024-01-07T06:09:33;5.30;;;4.10;;
12846;SDS011;6492;48.128;8.320;2024-01-07T06:13:36;4.93;;;3.93;;
12846;SDS011;6492;48.128;8.320;2024-01-07T06:17:38;4.57;;;3.57;;
12846;SDS011;6492;48.128;8.320;2024-01-07T06:21:40;6.97;;;3.90;;
12846;SDS011;6492;48.128;8.320;2024-01-07T06:25:42;5.33;;;4.23;;
12846;SDS011;6492;48.128;8.320;2024-01-07T06:29:45;4.70;;;4.03;;
12846;SDS011;6492;48.128;8.320;2024-01-07T06:33:46;4.60;;;3.60;;
12846;SDS011;6492;48.128;8.320;2024-01-07T06:37:48;5.30;;;3.90;;
12846;SDS011;6492;48.128;8.320;2024-01-07T06:41:50;4.10;;;3.10;;
12846;SDS011;6492;48.128;8.320;2024-01-07T06:45:53;4.43;;;3.30;;
12846;SDS011;6492;48.128;8.320;2024-01-07T06:49:55;4.87;;;3.37;;
12846;SDS011;6492;48.128;8.320;2024-01-07T06:53:57;5.47;;;3.60;;
12846;SDS011;6492;48.128;8.320;2024-01-07T06:57:58;3.47;;;3.00;;
12846;SDS011;6492;48.128;8.320;2024-01-07T07:02:01;2.90;;;2.60;;
12846;SDS011;6492;48.128;8.320;2024-01-07T07:06:04;3.27;;;2.80;;
12846;SDS011;6492;48.128;8.320;2024-01-07T07:10:06;4.23;;;3.10;;
12846;SDS011;6492;48.128;8.320;2024-01-07T07:14:08;5.53;;;3.13;;
12846;SDS011;6492;48.128;8.320;2024-01-07T07:18:11;3.73;;;3.13;;
12846;SDS011;6492;48.128;8.320;2024-01-07T07:22:12;3.90;;;3.30;;
12846;SDS011;6492;48.128;8.320;2024-01-07T07:26:14;3.77;;;3.10;;
12846;SDS011;6492;48.128;8.320;2024-01-07T07:30:16;4.27;;;3.40;;
12846;SDS011;6492;48.128;8.320;2024-01-07T07:34:20;4.37;;;3.57;;
12846;SDS011;6492;48.128;8.320;2024-01-07T07:38:23;4.80;;;3.80;;
12846;SDS011;6492;48.128;8.320;2024-01-07T07:42:24;6.60;;;3.83;;
12846;SDS011;6492;48.128;8.320;2024-01-07T07:46:26;4.17;;;3.43;;
12846;SDS011;6492;48.128;8.320;2024-01-07T07:50:29;4.13;;;3.23;;
12846;SDS011;6492;48.128;8.320;2024-01-07T07:54:31;4.60;;;3.83;;
12846;SDS011;6492;48.128;8.320;2024-01-07T07:58:33;21.13;;;11.73;;
12846;SDS011;6492;48.128;8.320;2024-01-07T08:02:34;5.27;;;3.93;;
12846;SDS011;6492;48.128;8.320;2024-01-07T08:06:37;7.93;;;5.23;;
12846;SDS011;6492;48.128;8.320;2024-01-07T08:10:39;5.50;;;3.83;;
12846;SDS011;6492;48.128;8.320;2024-01-07T08:14:41;4.60;;;3.57;;
12846;SDS011;6492;48.128;8.320;2024-01-07T08:18:43;6.93;;;5.70;;
12846;SDS011;6492;48.128;8.320;2024-01-07T08:22:46;5.10;;;3.83;;
12846;SDS011;6492;48.128;8.320;2024-01-07T08:26:48;4.03;;;3.23;;
12846;SDS011;6492;48.128;8.320;2024-01-07T08:30:55;4.70;;;3.97;;
12846;SDS011;6492;48.128;8.320;2024-01-07T08:34:58;4.13;;;3.47;;
12846;SDS011;6492;48.128;8.320;2024-01-07T08:39:01;3.53;;;2.70;;
12846;SDS011;6492;48.128;8.320;2024-01-07T08:43:03;3.33;;;3.00;;
12846;SDS011;6492;48.128;8.320;2024-01-07T08:47:05;3.47;;;3.17;;
12846;SDS011;6492;48.128;8.320;2024-01-07T08:51:07;5.80;;;5.20;;
12846;SDS011;6492;48.128;8.320;2024-01-07T08:55:11;6.50;;;5.53;;
12846;SDS011;6492;48.128;8.320;2024-01-07T08:59:13;4.27;;;3.67;;
12846;SDS011;6492;48.128;8.320;2024-01-07T09:03:15;4.37;;;3.97;;
12846;SDS011;6492;48.128;8.320;2024-01-07T09:07:18;4.43;;;3.70;;
12846;SDS011;6492;48.128;8.320;2024-01-07T09:11:21;10.67;;;9.67;;
12846;SDS011;6492;48.128;8.320;2024-01-07T09:15:24;4.93;;;4.03;;
12846;SDS011;6492;48.128;8.320;2024-01-07T09:19:26;5.70;;;4.40;;
12846;SDS011;6492;48.128;8.320;2024-01-07T09:23:28;6.40;;;5.20;;
12846;SDS011;6492;48.128;8.320;2024-01-07T09:27:31;5.50;;;4.87;;
12846;SDS011;6492;48.128;8.320;2024-01-07T09:31:33;6.33;;;5.20;;
12846;SDS011;6492;48.128;8.320;2024-01-07T09:35:35;7.13;;;6.03;;
12846;SDS011;6492;48.128;8.320;2024-01-07T09:39:38;6.23;;;5.37;;
12846;SDS011;6492;48.128;8.320;2024-01-07T09:43:41;7.20;;;5.77;;
12846;SDS011;6492;48.128;8.320;2024-01-07T09:47:43;4.97;;;4.33;;
12846;SDS011;6492;48.128;8.320;2024-01-07T09:51:46;5.30;;;4.80;;
12846;SDS011;6492;48.128;8.320;2024-01-07T09:55:52;5.87;;;5.00;;
12846;SDS011;6492;48.128;8.320;2024-01-07T10:04:10;5.23;;;4.40;;
12846;SDS011;6492;48.128;8.320;2024-01-07T10:08:13;5.37;;;4.77;;
12846;SDS011;6492;48.128;8.320;2024-01-07T10:12:22;6.00;;;5.00;;
12846;SDS011;6492;48.128;8.320;2024-01-07T10:20:30;6.03;;;4.87;;
12846;SDS011;6492;48.128;8.320;2024-01-07T10:24:45;5.40;;;4.90;;
12846;SDS011;6492;48.128;8.320;2024-01-07T10:28:49;7.63;;;5.47;;
12846;SDS011;6492;48.128;8.320;2024-01-07T10:32:52;7.93;;;5.77;;
12846;SDS011;6492;48.128;8.320;2024-01-07T10:36:58;5.20;;;4.70;;
12846;SDS011;6492;48.128;8.320;2024-01-07T10:41:03;4.97;;;4.47;;
12846;SDS011;6492;48.128;8.320;2024-01-07T10:45:09;9.50;;;7.73;;
12846;SDS011;6492;48.128;8.320;2024-01-07T10:49:19;4.07;;;3.67;;
12846;SDS011;6492;48.128;8.320;2024-01-07T10:53:26;5.27;;;3.90;;
12846;SDS011;6492;48.128;8.320;2024-01-07T10:57:34;5.83;;;4.87;;
12846;SDS011;6492;48.128;8.320;2024-01-07T11:01:50;5.50;;;4.90;;
12846;SDS011;6492;48.128;8.320;2024-01-07T11:05:54;5.37;;;4.47;;
12846;SDS011;6492;48.128;8.320;2024-01-07T11:10:02;5.10;;;4.57;;
12846;SDS011;6492;48.128;8.320;2024-01-07T11:18:49;6.63;;;5.50;;
12846;SDS011;6492;48.128;8.320;2024-01-07T11:22:54;6.97;;;6.10;;
12846;SDS011;6492;48.128;8.320;2024-01-07T11:27:29;8.77;;;6.50;;
12846;SDS011;6492;48.128;8.320;2024-01-07T11:31:44;9.50;;;6.50;;
12846;SDS011;6492;48.128;8.320;2024-01-07T11:35:59;8.67;;;6.70;;
12846;SDS011;6492;48.128;8.320;2024-01-07T11:40:04;7.83;;;6.27;;
12846;SDS011;6492;48.128;8.320;2024-01-07T11:44:08;7.23;;;5.57;;
12846;SDS011;6492;48.128;8.320;2024-01-07T11:48:11;8.00;;;6.10;;
12846;SDS011;6492;48.128;8.320;2024-01-07T11:52:15;6.23;;;5.00;;
12846;SDS011;6492;48.128;8.320;2024-01-07T11:56:19;7.60;;;5.60;;
12846;SDS011;6492;48.128;8.320;2024-01-07T12:00:21;7.93;;;6.17;;
12846;SDS011;6492;48.128;8.320;2024-01-07T12:04:23;8.33;;;6.57;;
12846;SDS011;6492;48.128;8.320;2024-01-07T12:08:24;7.50;;;5.60;;
12846;SDS011;6492;48.128;8.320;2024-01-07T12:12:28;10.17;;;7.40;;
12846;SDS011;6492;48.128;8.320;2024-01-07T12:16:38;8.73;;;6.83;;
12846;SDS011;6492;48.128;8.320;2024-01-07T12:20:40;12.77;;;8.90;;
12846;SDS011;6492;48.128;8.320;2024-01-07T12:24:42;12.13;;;8.50;;
12846;SDS011;6492;48.128;8.320;2024-01-07T12:28:51;10.10;;;7.37;;
12846;SDS011;6492;48.128;8.320;2024-01-07T12:32:55;12.23;;;8.27;;
12846;SDS011;6492;48.128;8.320;2024-01-07T12:36:57;10.40;;;7.83;;
12846;SDS011;6492;48.128;8.320;2024-01-07T12:40:59;11.83;;;8.00;;
12846;SDS011;6492;48.128;8.320;2024-01-07T12:45:03;12.17;;;8.33;;
12846;SDS011;6492;48.128;8.320;2024-01-07T12:49:06;20.47;;;8.87;;
12846;SDS011;6492;48.128;8.320;2024-01-07T12:53:08;11.50;;;7.20;;
12846;SDS011;6492;48.128;8.320;2024-01-07T12:57:10;10.57;;;7.87;;
12846;SDS011;6492;48.128;8.320;2024-01-07T13:01:13;12.17;;;8.20;;
12846;SDS011;6492;48.128;8.320;2024-01-07T13:05:15;17.90;;;9.17;;
12846;SDS011;6492;48.128;8.320;2024-01-07T13:09:17;16.50;;;8.70;;
12846;SDS011;6492;48.128;8.320;2024-01-07T13:13:20;17.57;;;8.07;;
12846;SDS011;6492;48.128;8.320;2024-01-07T13:21:49;9.07;;;6.60;;
12846;SDS011;6492;48.128;8.320;2024-01-07T13:25:51;7.97;;;6.43;;
12846;SDS011;6492;48.128;8.320;2024-01-07T13:29:53;7.97;;;6.33;;
12846;SDS011;6492;48.128;8.320;2024-01-07T13:33:56;9.10;;;7.30;;
12846;SDS011;6492;48.128;8.320;2024-01-07T13:38:07;13.80;;;7.20;;
12846;SDS011;6492;48.128;8.320;2024-01-07T13:42:09;25.13;;;8.80;;
12846;SDS011;6492;48.128;8.320;2024-01-07T13:46:12;13.13;;;7.97;;
12846;SDS011;6492;48.128;8.320;2024-01-07T13:50:16;12.50;;;7.63;;
12846;SDS011;6492;48.128;8.320;2024-01-07T13:54:18;16.70;;;8.33;;
12846;SDS011;6492;48.128;8.320;2024-01-07T13:58:20;11.87;;;8.73;;
12846;SDS011;6492;48.128;8.320;2024-01-07T14:02:23;12.20;;;8.50;;
12846;SDS011;6492;48.128;8.320;2024-01-07T14:06:26;16.53;;;7.63;;
12846;SDS011;6492;48.128;8.320;2024-01-07T14:10:41;9.07;;;7.20;;
12846;SDS011;6492;48.128;8.320;2024-01-07T14:14:42;9.50;;;6.80;;
12846;SDS011;6492;48.128;8.320;2024-01-07T14:18:44;10.83;;;8.47;;
12846;SDS011;6492;48.128;8.320;2024-01-07T14:22:47;11.93;;;7.67;;
12846;SDS011;6492;48.128;8.320;2024-01-07T14:26:54;10.37;;;7.47;;
12846;SDS011;6492;48.128;8.320;2024-01-07T14:30:56;12.73;;;8.27;;
12846;SDS011;6492;48.128;8.320;2024-01-07T14:35:00;16.83;;;10.73;;
12846;SDS011;6492;48.128;8.320;2024-01-07T14:39:04;13.63;;;8.37;;
12846;SDS011;6492;48.128;8.320;2024-01-07T14:43:05;12.20;;;8.57;;
12846;SDS011;6492;48.128;8.320;2024-01-07T14:47:12;29.07;;;21.97;;
12846;SDS011;6492;48.128;8.320;2024-01-07T14:51:15;14.93;;;10.77;;
12846;SDS011;6492;48.128;8.320;2024-01-07T14:55:18;15.70;;;8.47;;
12846;SDS011;6492;48.128;8.320;2024-01-07T14:59:22;11.70;;;9.00;;
12846;SDS011;6492;48.128;8.320;2024-01-07T15:03:24;11.07;;;7.70;;
12846;SDS011;6492;48.128;8.320;2024-01-07T15:07:32;10.10;;;7.40;;
12846;SDS011;6492;48.128;8.320;2024-01-07T15:11:36;12.53;;;8.30;;
12846;SDS011;6492;48.128;8.320;2024-01-07T15:15:38;10.87;;;7.93;;
12846;SDS011;6492;48.128;8.320;2024-01-07T15:19:45;8.13;;;6.03;;
12846;SDS011;6492;48.128;8.320;2024-01-07T15:23:54;10.47;;;9.03;;
12846;SDS011;6492;48.128;8.320;2024-01-07T15:27:57;12.33;;;8.73;;
12846;SDS011;6492;48.128;8.320;2024-01-07T15:31:59;7.80;;;6.00;;
12846;SDS011;6492;48.128;8.320;2024-01-07T15:36:02;8.47;;;6.63;;
12846;SDS011;6492;48.128;8.320;2024-01-07T15:40:06;8.33;;;6.87;;
12846;SDS011;6492;48.128;8.320;2024-01-07T15:44:10;6.63;;;5.83;;
12846;SDS011;6492;48.128;8.320;2024-01-07T15:52:17;6.20;;;5.60;;
12846;SDS011;6492;48.128;8.320;2024-01-07T15:56:22;6.67;;;5.77;;
12846;SDS011;6492;48.128;8.320;2024-01-07T16:00:25;7.73;;;5.53;;
12846;SDS011;6492;48.128;8.320;2024-01-07T16:04:32;9.23;;;7.03;;
12846;SDS011;6492;48.128;8.320;2024-01-07T16:08:34;9.17;;;6.10;;
12846;SDS011;6492;48.128;8.320;2024-01-07T16:12:36;8.37;;;7.13;;
12846;SDS011;6492;48.128;8.320;2024-01-07T16:16:39;8.07;;;6.43;;
12846;SDS011;6492;48.128;8.320;2024-01-07T16:20:41;7.87;;;6.20;;
12846;SDS011;6492;48.128;8.320;2024-01-07T16:24:43;7.87;;;6.07;;
12846;SDS011;6492;48.128;8.320;2024-01-07T16:28:45;8.33;;;6.40;;
12846;SDS011;6492;48.128;8.320;2024-01-07T16:32:48;9.70;;;6.90;;
12846;SDS011;6492;48.128;8.320;2024-01-07T16:36:50;13.37;;;9.27;;
12846;SDS011;6492;48.128;8.320;2024-01-07T16:40:52;12.47;;;7.90;;
12846;SDS011;6492;48.128;8.320;2024-01-07T16:44:53;11.37;;;7.20;;
12846;SDS011;6492;48.128;8.320;2024-01-07T16:48:56;12.27;;;7.53;;
12846;SDS011;6492;48.128;8.320;2024-01-07T16:52:58;11.13;;;7.97;;
12846;SDS011;6492;48.128;8.320;2024-01-07T16:57:02;10.50;;;7.50;;
12846;SDS011;6492;48.128;8.320;2024-01-07T17:01:04;10.53;;;6.87;;
12846;SDS011;6492;48.128;8.320;2024-01-07T17:05:07;10.30;;;7.03;;
12846;SDS011;6492;48.128;8.320;2024-01-07T17:09:10;11.07;;;7.77;;
12846;SDS011;6492;48.128;8.320;2024-01-07T17:13:17;10.57;;;7.40;;
12846;SDS011;6492;48.128;8.320;2024-01-07T17:17:21;10.23;;;7.47;;
12846;SDS011;6492;48.128;8.320;2024-01-07T17:21:33;11.73;;;8.47;;
12846;SDS011;6492;48.128;8.320;2024-01-07T17:25:34;9.47;;;6.80;;
12846;SDS011;6492;48.128;8.320;2024-01-07T17:29:36;12.00;;;8.27;;
12846;SDS011;6492;48.128;8.320;2024-01-07T17:33:38;11.67;;;9.03;;
12846;SDS011;6492;48.128;8.320;2024-01-07T17:37:41;12.33;;;8.47;;
12846;SDS011;6492;48.128;8.320;2024-01-07T17:41:43;11.07;;;8.27;;
12846;SDS011;6492;48.128;8.320;2024-01-07T17:45:45;11.83;;;8.43;;
12846;SDS011;6492;48.128;8.320;2024-01-07T17:49:57;11.97;;;8.40;;
12846;SDS011;6492;48.128;8.320;2024-01-07T17:54:00;12.67;;;8.73;;
12846;SDS011;6492;48.128;8.320;2024-01-07T17:58:02;12.97;;;9.23;;
12846;SDS011;6492;48.128;8.320;2024-01-07T18:06:25;11.60;;;7.97;;
12846;SDS011;6492;48.128;8.320;2024-01-07T18:10:28;14.03;;;9.87;;
12846;SDS011;6492;48.128;8.320;2024-01-07T18:14:30;10.37;;;7.97;;
12846;SDS011;6492;48.128;8.320;2024-01-07T18:18:32;13.27;;;8.87;;
12846;SDS011;6492;48.128;8.320;2024-01-07T18:22:33;11.83;;;8.17;;
12846;SDS011;6492;48.128;8.320;2024-01-07T18:26:37;11.87;;;8.43;;
12846;SDS011;6492;48.128;8.320;2024-01-07T18:30:39;12.80;;;8.97;;
12846;SDS011;6492;48.128;8.320;2024-01-07T18:34:42;11.10;;;7.67;;
12846;SDS011;6492;48.128;8.320;2024-01-07T18:38:44;11.87;;;7.63;;
12846;SDS011;6492;48.128;8.320;2024-01-07T18:47:22;9.17;;;6.73;;
12846;SDS011;6492;48.128;8.320;2024-01-07T18:51:25;9.47;;;6.60;;
12846;SDS011;6492;48.128;8.320;2024-01-07T18:55:27;9.33;;;6.40;;
12846;SDS011;6492;48.128;8.320;2024-01-07T18:59:32;8.23;;;6.70;;
12846;SDS011;6492;48.128;8.320;2024-01-07T19:03:34;8.47;;;6.57;;
12846;SDS011;6492;48.128;8.320;2024-01-07T19:07:36;9.87;;;6.60;;
12846;SDS011;6492;48.128;8.320;2024-01-07T19:11:37;10.10;;;8.23;;
12846;SDS011;6492;48.128;8.320;2024-01-07T19:15:41;12.30;;;8.57;;
12846;SDS011;6492;48.128;8.320;2024-01-07T19:24:00;10.03;;;7.13;;
12846;SDS011;6492;48.128;8.320;2024-01-07T19:28:02;8.73;;;6.80;;
12846;SDS011;6492;48.128;8.320;2024-01-07T19:32:25;10.53;;;6.73;;
12846;SDS011;6492;48.128;8.320;2024-01-07T19:36:27;9.93;;;7.50;;
12846;SDS011;6492;48.128;8.320;2024-01-07T19:40:29;7.83;;;6.90;;
12846;SDS011;6492;48.128;8.320;2024-01-07T19:44:31;9.90;;;7.03;;
12846;SDS011;6492;48.128;8.320;2024-01-07T19:48:35;12.37;;;7.33;;
12846;SDS011;6492;48.128;8.320;2024-01-07T19:52:37;9.97;;;6.90;;
12846;SDS011;6492;48.128;8.320;2024-01-07T20:01:28;9.97;;;7.37;;
12846;SDS011;6492;48.128;8.320;2024-01-07T20:05:31;8.83;;;7.00;;
12846;SDS011;6492;48.128;8.320;2024-01-07T20:09:33;8.57;;;6.70;;
12846;SDS011;6492;48.128;8.320;2024-01-07T20:13:35;9.70;;;6.60;;
12846;SDS011;6492;48.128;8.320;2024-01-07T20:17:38;8.57;;;6.27;;
12846;SDS011;6492;48.128;8.320;2024-01-07T20:21:41;9.87;;;6.27;;
12846;SDS011;6492;48.128;8.320;2024-01-07T20:25:43;9.37;;;6.50;;
12846;SDS011;6492;48.128;8.320;2024-01-07T20:29:46;9.57;;;6.70;;
12846;SDS011;6492;48.128;8.320;2024-01-07T20:33:50;8.93;;;6.40;;
12846;SDS011;6492;48.128;8.320;2024-01-07T20:37:53;8.30;;;6.27;;
12846;SDS011;6492;48.128;8.320;2024-01-07T20:41:55;9.37;;;6.03;;
12846;SDS011;6492;48.128;8.320;2024-01-07T20:45:57;10.60;;;6.70;;
12846;SDS011;6492;48.128;8.320;2024-01-07T20:54:34;8.70;;;6.40;;
12846;SDS011;6492;48.128;8.320;2024-01-07T21:03:02;8.20;;;6.37;;
12846;SDS011;6492;48.128;8.320;2024-01-07T21:07:05;8.83;;;6.50;;
12846;SDS011;6492;48.128;8.320;2024-01-07T21:11:08;10.40;;;7.00;;
12846;SDS011;6492;48.128;8.320;2024-01-07T21:15:10;11.57;;;7.73;;
12846;SDS011;6492;48.128;8.320;2024-01-07T21:19:20;12.07;;;7.13;;
12846;SDS011;6492;48.128;8.320;2024-01-07T21:23:22;13.07;;;7.97;;
12846;SDS011;6492;48.128;8.320;2024-01-07T21:27:25;13.03;;;8.20;;
12846;SDS011;6492;48.128;8.320;2024-01-07T21:31:27;12.77;;;8.10;;
12846;SDS011;6492;48.128;8.320;2024-01-07T21:35:30;10.33;;;7.43;;
12846;SDS011;6492;48.128;8.320;2024-01-07T21:39:32;9.80;;;7.43;;
12846;SDS011;6492;48.128;8.320;2024-01-07T21:48:22;11.27;;;7.63;;
12846;SDS011;6492;48.128;8.320;2024-01-07T21:52:27;11.17;;;7.60;;
12846;SDS011;6492;48.128;8.320;2024-01-07T21:56:31;13.07;;;8.30;;
12846;SDS011;6492;48.128;8.320;2024-01-07T22:00:33;9.67;;;7.57;;
12846;SDS011;6492;48.128;8.320;2024-01-07T22:04:36;12.17;;;8.70;;
12846;SDS011;6492;48.128;8.320;2024-01-07T22:08:39;10.70;;;7.53;;
12846;SDS011;6492;48.128;8.320;2024-01-07T22:12:41;12.80;;;8.13;;
12846;SDS011;6492;48.128;8.320;2024-01-07T22:16:42;9.33;;;7.63;;
12846;SDS011;6492;48.128;8.320;2024-01-07T22:20:48;10.70;;;7.67;;
12846;SDS011;6492;48.128;8.320;2024-01-07T22:24:49;12.53;;;7.87;;
12846;SDS011;6492;48.128;8.320;2024-01-07T22:28:51;10.67;;;8.20;;
12846;SDS011;6492;48.128;8.320;2024-01-07T22:32:53;12.97;;;7.97;;
12846;SDS011;6492;48.128;8.320;2024-01-07T22:36:57;10.53;;;7.23;;
12846;SDS011;6492;48.128;8.320;2024-01-07T22:40:58;10.43;;;7.27;;
12846;SDS011;6492;48.128;8.320;2024-01-07T22:45:01;10.37;;;7.30;;
12846;SDS011;6492;48.128;8.320;2024-01-07T22:49:03;8.47;;;6.57;;
12846;SDS011;6492;48.128;8.320;2024-01-07T22:53:20;8.83;;;6.50;;
12846;SDS011;6492;48.128;8.320;2024-01-07T22:57:22;8.87;;;6.30;;
12846;SDS011;6492;48.128;8.320;2024-01-07T23:01:27;9.27;;;6.67;;
12846;SDS011;6492;48.128;8.320;2024-01-07T23:05:28;8.40;;;6.17;;
12846;SDS011;6492;48.128;8.320;2024-01-07T23:09:32;8.17;;;5.97;;
12846;SDS011;6492;48.128;8.320;2024-01-07T23:13:34;10.97;;;6.27;;
12846;SDS011;6492;48.128;8.320;2024-01-07T23:17:35;8.53;;;6.27;;
12846;SDS011;6492;48.128;8.320;2024-01-07T23:21:39;7.33;;;5.50;;
12846;SDS011;6492;48.128;8.320;2024-01-07T23:25:42;9.17;;;6.00;;
12846;SDS011;6492;48.128;8.320;2024-01-07T23:29:44;8.57;;;6.63;;
12846;SDS011;6492;48.128;8.320;2024-01-07T23:33:55;8.53;;;6.63;;
12846;SDS011;6492;48.128;8.320;2024-01-07T23:37:57;7.70;;;5.93;;
12846;SDS011;6492;48.128;8.320;2024-01-07T23:42:00;9.33;;;6.40;;
12846;SDS011;6492;48.128;8.320;2024-01-07T23:46:02;7.50;;;6.10;;
12846;SDS011;6492;48.128;8.320;2024-01-07T23:50:05;8.27;;;5.90;;
12846;SDS011;6492;48.128;8.320;2024-01-07T23:54:08;6.57;;;5.53;;
12846;SDS011;6492;48.128;8.320;2024-01-07T23:58:11;7.80;;;5.83;;
